Sunray, Texas
Current Conditions -  °F | °C
As of 7:55 PM on Monday 20 Oct 2014 (Local Time) from KDUX Reporting Station
Clear Clear  
Wind Chill: 63°   Ceiling: Unl
Heat Index: 63°   Visibility: 10mi
Dew Point: 47°   Wind: 7mph
Humidity: 54%   Direction: 70°ENE
Pressure: 30.1"   Gusts: NA
Location:  36.02°N, 101.82°W
Report Text: KDUX 210055Z AUTO 07006KT 10SM CLR 17/08 A3010 RMK AO2 T01740081
Loading
Personal Weather Stations






























Interactive Weather Map
Tropical Storm Tracking
New forecast layout! Learn more

10-Day Weather Forecast

Advertisements
Track Severe Weather on mobile